createdAt,value
2022-10-30T00:03:16.026Z,77.9
2022-10-30T00:18:26.431Z,75.8
2022-10-30T00:33:38.974Z,77
2022-10-30T00:48:48.289Z,77.6
2022-10-30T01:03:57.383Z,78.4
2022-10-30T01:19:07.052Z,79.2
2022-10-30T01:34:16.576Z,79.5
2022-10-30T01:49:26.327Z,79.3
2022-10-30T02:04:38.904Z,78.9
2022-10-30T02:19:49.298Z,78.6
2022-10-30T02:34:58.965Z,77.5
2022-10-30T02:50:08.507Z,77
2022-10-30T03:05:18.217Z,76.4
2022-10-30T03:20:27.430Z,77.8
2022-10-30T03:35:39.422Z,79.1
2022-10-30T03:50:48.657Z,79.4
2022-10-30T04:05:57.122Z,80.4
2022-10-30T04:21:06.900Z,80.8
2022-10-30T04:36:16.287Z,80.9
2022-10-30T04:51:25.720Z,80.9
2022-10-30T05:06:39.042Z,80.9
2022-10-30T05:21:48.458Z,81.1
2022-10-30T05:36:58.024Z,81.1
2022-10-30T05:52:06.975Z,81.2
2022-10-30T06:07:16.717Z,81.2
2022-10-30T06:22:26.104Z,81.3
2022-10-30T06:37:39.528Z,81.2
2022-10-30T06:52:48.795Z,81.3
2022-10-30T07:09:16.843Z,80.3
2022-10-30T07:24:27.338Z,81.5
2022-10-30T07:39:39.044Z,81.3
2022-10-30T07:54:48.528Z,80.9
2022-10-30T08:09:58.402Z,80.6
2022-10-30T08:25:07.843Z,80.3
2022-10-30T08:40:17.311Z,80.1
2022-10-30T08:55:26.984Z,80
2022-10-30T09:10:38.419Z,79.6
2022-10-30T09:25:47.726Z,79.4
2022-10-30T09:40:57.396Z,78.9
2022-10-30T09:56:07.784Z,78.2
2022-10-30T10:11:17.773Z,77.8
2022-10-30T10:26:27.836Z,77.5
2022-10-30T10:41:37.960Z,77.2
2022-10-30T10:56:47.643Z,76.8
2022-10-30T11:11:57.316Z,76.3
2022-10-30T11:27:06.915Z,76
2022-10-30T11:42:17.504Z,74.3
2022-10-30T11:57:31.143Z,72.3
2022-10-30T12:12:40.165Z,71.7
2022-10-30T12:27:49.027Z,71.6
2022-10-30T12:42:58.620Z,71.5
2022-10-30T12:58:08.433Z,70.9
2022-10-30T13:13:20.262Z,65.8
2022-10-30T13:28:30.010Z,66.6
2022-10-30T13:43:43.786Z,69.4
2022-10-30T13:58:52.441Z,71.9
2022-10-30T14:14:01.915Z,73.1
2022-10-30T14:29:10.879Z,73.3
2022-10-30T14:44:20.271Z,73.6
2022-10-30T14:59:29.848Z,73.9
2022-10-30T15:14:55.347Z,74.3
2022-10-30T15:30:04.946Z,74.7
2022-10-30T15:45:13.657Z,75.1
2022-10-30T16:00:26.477Z,75.5
2022-10-30T16:15:39.890Z,75.8
2022-10-30T16:30:49.457Z,76.2
2022-10-30T16:45:58.856Z,76.5
2022-10-30T17:01:09.256Z,76.9
2022-10-30T17:16:26.275Z,77.2
2022-10-30T17:31:37.077Z,77.3
2022-10-30T17:46:46.561Z,77.6
2022-10-30T18:01:56.495Z,77.8
2022-10-30T18:17:05.827Z,77.9
2022-10-30T18:32:15.304Z,78.1
2022-10-30T18:47:24.718Z,78.2
2022-10-30T19:02:34.872Z,78.3
2022-10-30T19:17:44.717Z,78.4
2022-10-30T19:32:53.958Z,78.6
2022-10-30T19:48:02.932Z,78.8
2022-10-30T20:03:12.479Z,79.1
2022-10-30T20:18:22.224Z,79.3
2022-10-30T20:33:31.809Z,79.5
2022-10-30T20:48:41.296Z,79.8
2022-10-30T21:03:50.570Z,80
2022-10-30T21:19:00.278Z,80.1
2022-10-30T21:34:09.854Z,80.1
2022-10-30T21:49:19.500Z,80.3
2022-10-30T22:04:28.099Z,80.4
2022-10-30T22:19:38.245Z,80
2022-10-30T22:34:47.809Z,80
2022-10-30T22:49:58.561Z,80.2
2022-10-30T23:05:08.358Z,80.2
2022-10-30T23:20:17.866Z,79.6
2022-10-30T23:35:27.517Z,78.8
2022-10-30T23:50:39.833Z,79.1
